Time;durP1;ratioP1;P1;durP2;ratioP2;P2;SDS_P1;SDS_P2;PMS_P1;PMS_P2;Temp;Humidity;BMP_temperature;BMP_pressure;BME280_temperature;BME280_humidity;BME280_pressure;Samples;Min_cycle;Max_cycle;Signal;HPM_P1;HPM_P2
2021/03/15 00:01:16;;;;;;;8.87;1.40;;;13.20;99.90;;;;;;5091585;28;20121;-75
2021/03/15 00:03:42;;;;;;;9.25;1.38;;;13.20;99.90;;;;;;5092986;28;20269;-74
2021/03/15 00:06:08;;;;;;;13.70;1.40;;;13.20;99.90;;;;;;5092660;28;20057;-74
2021/03/15 00:08:34;;;;;;;5.78;1.17;;;13.20;99.90;;;;;;5092690;28;20043;-74
2021/03/15 00:11:01;;;;;;;10.65;1.90;;;13.10;99.90;;;;;;5092572;28;20115;-75
2021/03/15 00:13:27;;;;;;;8.02;2.42;;;13.10;99.90;;;;;;5092693;28;20020;-77
2021/03/15 00:15:55;;;;;;;13.27;2.47;;;13.20;99.90;;;;;;5092587;28;20081;-75
2021/03/15 00:18:21;;;;;;;12.15;2.10;;;13.10;99.90;;;;;;5092769;28;20031;-75
2021/03/15 00:20:48;;;;;;;3.95;1.50;;;13.10;99.90;;;;;;5092565;28;20051;-78
2021/03/15 00:23:15;;;;;;;11.23;1.65;;;13.10;99.90;;;;;;5092582;28;20071;-77
2021/03/15 00:25:41;;;;;;;12.35;1.30;;;13.10;99.90;;;;;;5092558;28;20028;-77
2021/03/15 00:28:07;;;;;;;6.32;1.83;;;13.10;99.90;;;;;;5092588;28;20031;-77
2021/03/15 00:30:33;;;;;;;5.40;1.35;;;13.10;99.90;;;;;;5092390;28;20032;-77
2021/03/15 00:32:59;;;;;;;8.05;1.92;;;13.10;99.90;;;;;;5092580;28;20047;-77
2021/03/15 00:35:25;;;;;;;6.13;1.77;;;13.10;99.90;;;;;;5091462;28;20035;-77
2021/03/15 00:37:51;;;;;;;4.35;1.40;;;13.10;99.90;;;;;;5092408;28;20028;-76
2021/03/15 00:40:20;;;;;;;6.25;2.08;;;13.00;99.90;;;;;;5091153;28;20069;-77
2021/03/15 00:42:48;;;;;;;6.53;1.80;;;13.00;99.90;;;;;;5092492;28;20056;-77
2021/03/15 00:45:14;;;;;;;13.90;2.47;;;13.00;99.90;;;;;;5108032;28;20102;-78
2021/03/15 00:47:41;;;;;;;10.57;1.85;;;13.10;99.90;;;;;;5095912;28;20020;-77
2021/03/15 00:50:14;;;;;;;5.53;1.13;;;13.10;99.90;;;;;;5096571;28;20395;-74
2021/03/15 00:52:40;;;;;;;;;;;13.10;99.90;;;;;;5095615;28;20499;-75
2021/03/15 00:55:06;;;;;;;7.50;1.47;;;13.10;99.90;;;;;;5096377;28;19904;-74
2021/03/15 00:57:32;;;;;;;6.82;1.85;;;12.90;99.90;;;;;;5094861;28;20028;-74
2021/03/15 00:59:59;;;;;;;5.55;1.38;;;13.00;99.90;;;;;;5095986;28;20130;-74
2021/03/15 01:02:26;;;;;;;14.93;2.67;;;12.90;99.90;;;;;;5094884;28;20418;-74
2021/03/15 01:04:52;;;;;;;9.50;1.63;;;12.80;99.90;;;;;;5094648;28;20032;-74
2021/03/15 01:07:26;;;;;;;4.82;1.73;;;12.80;99.90;;;;;;5094839;28;20380;-74
2021/03/15 01:09:52;;;;;;;9.90;1.63;;;12.60;99.90;;;;;;5095854;28;20032;-75
2021/03/15 01:12:33;;;;;;;5.88;1.88;;;12.40;99.90;;;;;;5094711;28;20399;-74
2021/03/15 01:15:00;;;;;;;12.07;2.20;;;12.00;99.90;;;;;;5094549;28;20027;-75
2021/03/15 01:17:36;;;;;;;13.60;2.88;;;11.90;99.90;;;;;;5094640;28;20028;-74
2021/03/15 01:20:09;;;;;;;9.27;2.20;;;11.70;99.90;;;;;;5094457;28;20032;-75
2021/03/15 01:22:34;;;;;;;3.38;1.20;;;11.50;99.90;;;;;;5094550;28;20548;-74
2021/03/15 01:25:01;;;;;;;10.80;1.58;;;11.40;99.90;;;;;;5095704;28;20061;-74
2021/03/15 01:27:27;;;;;;;6.18;2.53;;;11.30;99.90;;;;;;5095741;28;20077;-75
2021/03/15 01:29:53;;;;;;;6.75;1.58;;;11.10;99.90;;;;;;5094406;28;20559;-74
2021/03/15 01:32:19;;;;;;;4.40;1.00;;;11.00;99.90;;;;;;5095631;28;20491;-75
2021/03/15 01:34:45;;;;;;;7.25;1.83;;;10.80;99.90;;;;;;5095629;28;20020;-75
2021/03/15 01:37:11;;;;;;;2.83;0.70;;;10.70;99.90;;;;;;5095456;28;20024;-75
2021/03/15 01:39:37;;;;;;;1.77;0.60;;;10.40;99.90;;;;;;5095520;28;20056;-75
2021/03/15 01:42:03;;;;;;;2.53;0.55;;;10.20;99.90;;;;;;5095394;28;20056;-74
2021/03/15 01:44:29;;;;;;;2.80;0.98;;;10.00;99.90;;;;;;5095509;28;20024;-75
2021/03/15 01:46:58;;;;;;;1.58;0.52;;;9.90;99.90;;;;;;5095279;28;20024;-74
2021/03/15 01:49:24;;;;;;;6.15;0.70;;;9.80;99.90;;;;;;5095290;28;20028;-75
2021/03/15 01:51:51;;;;;;;0.90;0.52;;;9.70;99.90;;;;;;5095227;28;20503;-75
2021/03/15 01:54:19;;;;;;;0.52;0.52;;;9.60;99.90;;;;;;5095322;28;20111;-75
2021/03/15 01:56:46;;;;;;;5.40;0.75;;;9.50;99.90;;;;;;5095260;28;20050;-77
2021/03/15 01:59:15;;;;;;;2.17;0.40;;;9.40;99.90;;;;;;5093594;28;20101;-77
2021/03/15 02:01:43;;;;;;;0.95;0.45;;;9.40;99.90;;;;;;5095088;28;20028;-77
2021/03/15 02:04:09;;;;;;;1.42;0.20;;;9.30;99.90;;;;;;5095179;28;20028;-77
2021/03/15 02:06:35;;;;;;;1.20;0.30;;;9.20;99.90;;;;;;5094270;28;20081;-75
2021/03/15 02:09:01;;;;;;;3.33;0.40;;;9.20;99.90;;;;;;5094811;28;20027;-76
2021/03/15 02:11:46;;;;;;;0.57;0.40;;;9.10;99.90;;;;;;5093646;28;20039;-75
2021/03/15 02:14:25;;;;;;;1.13;0.30;;;9.00;99.90;;;;;;5094926;28;20170;-77
2021/03/15 02:17:15;;;;;;;0.70;0.30;;;9.00;99.90;;;;;;5093491;28;20093;-77
2021/03/15 02:20:22;;;;;;;2.20;0.40;;;8.90;99.90;;;;;;5095013;28;20031;-77
2021/03/15 02:22:57;;;;;;;1.80;0.45;;;8.90;99.90;;;;;;5094492;28;20028;-76
2021/03/15 02:25:42;;;;;;;3.08;0.38;;;8.90;99.90;;;;;;5093405;28;20027;-77
2021/03/15 02:28:07;;;;;;;1.85;0.50;;;8.80;99.90;;;;;;5094807;28;20020;-77
2021/03/15 02:30:54;;;;;;;0.82;0.22;;;8.90;99.90;;;;;;5094426;28;20040;-77
2021/03/15 02:34:13;;;;;;;1.00;0.45;;;8.70;99.90;;;;;;5094602;28;20028;-78
2021/03/15 02:36:42;;;;;;;2.38;0.30;;;8.70;99.90;;;;;;5094423;28;20118;-77
2021/03/15 02:39:16;;;;;;;2.05;0.40;;;8.70;99.90;;;;;;5094428;28;20070;-76
2021/03/15 02:41:45;;;;;;;0.88;0.40;;;8.70;99.90;;;;;;5094358;28;20077;-77
2021/03/15 02:44:13;;;;;;;0.52;0.40;;;8.70;99.90;;;;;;5094237;28;20073;-76
2021/03/15 02:46:42;;;;;;;0.60;0.20;;;8.70;99.90;;;;;;5092987;28;20039;-77
2021/03/15 02:49:14;;;;;;;0.75;0.30;;;8.70;99.90;;;;;;5092916;28;20439;-77
2021/03/15 02:51:43;;;;;;;0.60;0.30;;;8.70;99.90;;;;;;5094072;28;20040;-77
2021/03/15 02:54:12;;;;;;;1.23;0.75;;;8.70;99.90;;;;;;5092881;28;20024;-76
2021/03/15 02:56:46;;;;;;;1.15;0.30;;;8.60;99.90;;;;;;5092825;28;20512;-76
2021/03/15 02:59:15;;;;;;;1.23;0.32;;;8.70;99.90;;;;;;5093711;28;20119;-77
2021/03/15 03:01:42;;;;;;;8.88;0.65;;;8.60;99.90;;;;;;5093981;28;20016;-77
2021/03/15 03:04:09;;;;;;;0.88;0.57;;;8.60;99.90;;;;;;5093863;28;20031;-76
2021/03/15 03:06:37;;;;;;;1.55;0.38;;;8.50;99.90;;;;;;5092683;28;20032;-77
2021/03/15 03:09:05;;;;;;;2.78;0.47;;;8.60;99.90;;;;;;5093403;28;20020;-77
2021/03/15 03:11:32;;;;;;;0.75;0.57;;;8.60;99.90;;;;;;5093892;28;20121;-77
2021/03/15 03:13:59;;;;;;;1.02;0.50;;;8.50;99.90;;;;;;5093651;28;20165;-77
2021/03/15 03:16:33;;;;;;;0.63;0.43;;;8.50;99.90;;;;;;5093664;28;20016;-77
2021/03/15 03:19:00;;;;;;;1.55;0.50;;;8.40;99.90;;;;;;5092330;28;20553;-78
2021/03/15 03:21:27;;;;;;;2.72;0.47;;;8.30;99.90;;;;;;5093576;28;20027;-74
2021/03/15 03:23:56;;;;;;;0.50;0.30;;;8.30;99.90;;;;;;5093433;28;20032;-75
2021/03/15 03:26:28;;;;;;;0.57;0.20;;;8.20;99.90;;;;;;5093405;28;20437;-77
2021/03/15 03:28:56;;;;;;;4.90;0.30;;;8.20;99.90;;;;;;5093369;28;20487;-75
2021/03/15 03:31:26;;;;;;;1.75;0.30;;;8.10;99.90;;;;;;5093324;28;20032;-74
2021/03/15 03:33:52;;;;;;;2.08;0.20;;;8.10;99.90;;;;;;5092006;28;20059;-74
2021/03/15 03:36:18;;;;;;;0.38;0.20;;;8.10;99.90;;;;;;5093493;28;20023;-74
2021/03/15 03:38:44;;;;;;;5.18;0.40;;;8.20;99.90;;;;;;5093209;28;20020;-74
2021/03/15 03:41:11;;;;;;;0.35;0.13;;;8.10;99.90;;;;;;5093180;28;20036;-74
2021/03/15 03:43:38;;;;;;;0.80;0.40;;;8.20;99.90;;;;;;5093198;28;20036;-74
2021/03/15 03:46:06;;;;;;;0.93;0.40;;;8.10;99.90;;;;;;5091748;28;20031;-74
2021/03/15 03:48:34;;;;;;;2.58;1.00;;;8.20;99.90;;;;;;5093058;28;20024;-74
2021/03/15 03:51:00;;;;;;;0.50;0.17;;;8.20;99.90;;;;;;5092857;28;20032;-74
2021/03/15 03:53:36;;;;;;;3.80;0.50;;;8.10;99.90;;;;;;5093123;28;20072;-74
2021/03/15 03:56:08;;;;;;;0.47;0.30;;;8.10;99.90;;;;;;5092617;28;20035;-75
2021/03/15 03:58:46;;;;;;;1.17;0.20;;;8.10;99.90;;;;;;5092734;28;20131;-75
2021/03/15 04:01:14;;;;;;;0.30;0.30;;;8.00;99.90;;;;;;5091403;28;20038;-74
2021/03/15 04:03:44;;;;;;;3.17;0.30;;;8.00;99.90;;;;;;5092798;28;20032;-76
2021/03/15 04:06:13;;;;;;;0.30;0.28;;;8.00;99.90;;;;;;5092737;28;20039;-75
2021/03/15 04:08:53;;;;;;;4.03;0.70;;;7.90;99.90;;;;;;5092720;28;20109;-76
2021/03/15 04:11:20;;;;;;;0.90;0.30;;;7.90;99.90;;;;;;5092719;28;20040;-76
2021/03/15 04:13:53;;;;;;;1.30;0.20;;;7.90;99.90;;;;;;5092609;28;20460;-76
2021/03/15 04:16:24;;;;;;;1.52;0.20;;;7.90;99.90;;;;;;5092717;28;20443;-76
2021/03/15 04:18:53;;;;;;;0.47;0.32;;;7.80;99.90;;;;;;5092607;28;20035;-76
2021/03/15 04:21:24;;;;;;;1.27;0.85;;;7.80;99.90;;;;;;5090591;28;20555;-77
2021/03/15 04:23:52;;;;;;;2.60;0.50;;;7.70;99.90;;;;;;5092604;28;20067;-76
2021/03/15 04:26:20;;;;;;;0.52;0.28;;;7.70;99.90;;;;;;5092592;28;20040;-76
2021/03/15 04:28:47;;;;;;;1.13;0.40;;;7.70;99.90;;;;;;5091239;28;20089;-76
2021/03/15 04:31:14;;;;;;;0.45;0.25;;;7.60;99.90;;;;;;5092559;28;20533;-77
2021/03/15 04:33:40;;;;;;;1.15;0.30;;;7.60;99.90;;;;;;5092633;28;20103;-77
2021/03/15 04:36:08;;;;;;;1.83;0.82;;;7.60;99.90;;;;;;5092504;28;20036;-75
2021/03/15 04:38:35;;;;;;;0.60;0.30;;;7.60;99.90;;;;;;5092627;28;20466;-74
2021/03/15 04:41:02;;;;;;;2.00;0.38;;;7.60;99.90;;;;;;5092320;28;20032;-74
2021/03/15 04:43:31;;;;;;;2.65;0.75;;;7.60;99.90;;;;;;5092307;28;20024;-73
2021/03/15 04:45:57;;;;;;;2.20;0.40;;;7.70;99.90;;;;;;5092336;28;20059;-75
2021/03/15 04:48:29;;;;;;;0.40;0.20;;;7.70;99.90;;;;;;5092343;28;20024;-75
2021/03/15 04:51:06;;;;;;;0.77;0.40;;;7.70;99.90;;;;;;5092218;28;20040;-74
2021/03/15 04:53:34;;;;;;;0.30;0.30;;;7.70;99.90;;;;;;5092235;28;20545;-74
2021/03/15 04:56:03;;;;;;;2.65;0.40;;;7.80;99.90;;;;;;5092148;28;20106;-74
2021/03/15 04:58:30;;;;;;;1.33;0.50;;;7.90;99.90;;;;;;5092069;28;20038;-74
2021/03/15 05:01:00;;;;;;;1.13;0.38;;;8.10;99.90;;;;;;5092297;28;20020;-75
2021/03/15 05:03:27;;;;;;;0.40;0.40;;;8.10;99.90;;;;;;5092289;28;20081;-75
2021/03/15 05:05:54;;;;;;;1.70;0.43;;;8.10;99.90;;;;;;5091030;28;20090;-75
2021/03/15 05:08:33;;;;;;;1.25;0.65;;;8.10;99.90;;;;;;5091108;28;20028;-74
2021/03/15 05:11:01;;;;;;;0.98;0.52;;;8.00;99.90;;;;;;5090903;28;20123;-74
2021/03/15 05:13:29;;;;;;;1.42;0.40;;;7.80;99.90;;;;;;5092265;28;20024;-75
2021/03/15 05:15:58;;;;;;;1.55;0.47;;;7.70;99.90;;;;;;5092071;28;20090;-74
2021/03/15 05:18:26;;;;;;;0.82;0.32;;;7.50;99.90;;;;;;5092029;28;20032;-74
2021/03/15 05:20:52;;;;;;;0.88;0.60;;;7.50;99.90;;;;;;5090706;28;20396;-74
2021/03/15 05:23:20;;;;;;;1.48;0.52;;;7.50;99.90;;;;;;5091987;28;20028;-74
2021/03/15 05:25:50;;;;;;;9.68;0.77;;;7.50;99.90;;;;;;5092015;28;20058;-74
2021/03/15 05:28:18;;;;;;;0.90;0.40;;;7.50;99.90;;;;;;5092045;28;20024;-74
2021/03/15 05:30:46;;;;;;;3.35;0.73;;;7.50;99.90;;;;;;5091837;28;20040;-74
2021/03/15 05:33:13;;;;;;;2.58;0.60;;;7.30;99.90;;;;;;5094168;28;20024;-74
2021/03/15 05:35:44;;;;;;;2.13;0.98;;;7.30;99.90;;;;;;5094678;28;20043;-74
2021/03/15 05:38:10;;;;;;;0.93;0.60;;;7.30;99.90;;;;;;5095801;28;20074;-76
2021/03/15 05:40:41;;;;;;;0.77;0.57;;;7.30;99.90;;;;;;5095615;28;20055;-77
2021/03/15 05:43:25;;;;;;;1.38;0.57;;;7.30;99.90;;;;;;5094240;28;20051;-76
2021/03/15 05:46:28;;;;;;;1.52;0.80;;;7.20;99.90;;;;;;5095443;28;20032;-76
2021/03/15 05:49:15;;;;;;;1.15;0.80;;;7.20;99.90;;;;;;5094081;28;20024;-76
2021/03/15 05:52:00;;;;;;;1.33;1.00;;;7.30;99.90;;;;;;5094459;28;20527;-74
2021/03/15 05:54:53;;;;;;;2.78;1.27;;;7.30;99.90;;;;;;5095518;28;20024;-75
2021/03/15 05:57:57;;;;;;;1.70;0.77;;;7.30;99.90;;;;;;5095427;28;20031;-75
2021/03/15 06:00:35;;;;;;;2.08;0.75;;;7.40;99.90;;;;;;5095192;28;20123;-75
2021/03/15 06:03:28;;;;;;;2.80;0.57;;;7.40;99.90;;;;;;5095130;28;20056;-77
2021/03/15 06:05:59;;;;;;;1.58;0.45;;;7.50;99.90;;;;;;5094000;28;20021;-77
2021/03/15 06:08:30;;;;;;;1.05;0.40;;;7.60;99.90;;;;;;5095191;28;20031;-77
2021/03/15 06:11:08;;;;;;;1.45;0.55;;;7.70;99.90;;;;;;5094936;28;20032;-77
2021/03/15 06:13:36;;;;;;;3.55;0.73;;;7.70;99.90;;;;;;5094834;28;20027;-77
2021/03/15 06:16:03;;;;;;;0.63;0.40;;;7.80;99.90;;;;;;5093544;28;20036;-76
2021/03/15 06:18:30;;;;;;;1.42;0.45;;;7.80;99.90;;;;;;5076894;28;20028;-77
2021/03/15 06:20:57;;;;;;;1.30;0.10;;;7.80;99.90;;;;;;5094790;28;20467;-77
2021/03/15 06:23:24;;;;;;;0.32;0.20;;;7.80;99.90;;;;;;5094738;28;20023;-77
2021/03/15 06:25:53;;;;;;;0.30;0.20;;;7.80;99.90;;;;;;5094748;28;20058;-76
2021/03/15 06:28:20;;;;;;;0.38;0.38;;;7.90;99.90;;;;;;5094567;28;20040;-76
2021/03/15 06:30:48;;;;;;;0.10;0.10;;;7.90;99.90;;;;;;5094508;28;20036;-76
2021/03/15 06:33:18;;;;;;;1.95;0.28;;;7.90;99.90;;;;;;5094399;28;20420;-76
2021/03/15 06:36:12;;;;;;;0.55;0.43;;;7.90;99.90;;;;;;5094523;28;20024;-76
2021/03/15 06:38:38;;;;;;;1.65;0.30;;;7.90;99.90;;;;;;5090711;28;20087;-76
2021/03/15 06:41:05;;;;;;;1.80;0.40;;;7.90;99.90;;;;;;5094283;28;20051;-76
2021/03/15 06:43:31;;;;;;;1.67;0.35;;;7.90;99.90;;;;;;5093835;28;20028;-77
2021/03/15 06:45:58;;;;;;;1.52;0.40;;;8.10;99.90;;;;;;5092764;28;20421;-77
2021/03/15 06:48:25;;;;;;;0.85;0.38;;;8.10;99.90;;;;;;5094210;28;20392;-77
2021/03/15 06:50:53;;;;;;;0.73;0.73;;;8.20;99.90;;;;;;5094072;28;20441;-77
2021/03/15 06:53:20;;;;;;;2.17;1.02;;;8.20;99.90;;;;;;5092817;28;20437;-77
2021/03/15 06:55:49;;;;;;;2.78;0.60;;;8.30;99.90;;;;;;5094158;28;20028;-77
2021/03/15 06:58:25;;;;;;;3.22;0.35;;;8.30;99.90;;;;;;5094062;28;20069;-77
2021/03/15 07:01:12;;;;;;;0.60;0.45;;;8.30;99.90;;;;;;5092686;28;20122;-77
2021/03/15 07:03:39;;;;;;;0.30;0.25;;;8.30;99.90;;;;;;5093921;28;20046;-77
2021/03/15 07:06:06;;;;;;;0.68;0.68;;;8.20;99.90;;;;;;5094198;28;20024;-74
2021/03/15 07:08:32;;;;;;;0.10;0.10;;;8.20;99.90;;;;;;5095469;28;20165;-75
2021/03/15 07:10:58;;;;;;;0.50;0.50;;;8.20;99.90;;;;;;5093664;28;20401;-74
2021/03/15 07:13:25;;;;;;;0.65;0.40;;;8.10;99.90;;;;;;5093911;28;20109;-74
2021/03/15 07:15:53;;;;;;;0.15;0.10;;;8.10;99.90;;;;;;5092482;28;20422;-74
2021/03/15 07:18:27;;;;;;;2.22;0.93;;;8.10;99.90;;;;;;5093468;28;20024;-76
2021/03/15 07:21:01;;;;;;;0.20;0.20;;;8.10;99.90;;;;;;5093788;28;20028;-75
2021/03/15 07:23:54;;;;;;;1.08;0.30;;;8.10;99.90;;;;;;5093808;28;20162;-76
2021/03/15 07:26:28;;;;;;;4.47;1.10;;;8.10;99.90;;;;;;5093555;28;20031;-74
2021/03/15 07:28:55;;;;;;;0.20;0.20;;;8.10;99.90;;;;;;5093433;28;20032;-74
2021/03/15 07:31:29;;;;;;;0.73;0.55;;;8.20;99.90;;;;;;5093383;28;20036;-74
2021/03/15 07:33:55;;;;;;;0.52;0.50;;;8.30;99.90;;;;;;5093299;28;20476;-74
2021/03/15 07:36:45;;;;;;;1.85;0.17;;;8.30;99.90;;;;;;5075167;28;20081;-74
2021/03/15 07:39:11;;;;;;;3.30;0.20;;;8.20;99.90;;;;;;5092080;28;20430;-75
2021/03/15 07:41:38;;;;;;;0.52;0.38;;;8.10;99.90;;;;;;5093138;28;20073;-74
2021/03/15 07:44:23;;;;;;;0.28;0.20;;;8.10;99.90;;;;;;5093102;28;20365;-75
2021/03/15 07:46:52;;;;;;;0.50;0.20;;;8.10;99.90;;;;;;5091904;28;20385;-75
2021/03/15 07:49:39;;;;;;;2.50;0.20;;;8.10;99.90;;;;;;5093190;28;20024;-74
2021/03/15 07:52:10;;;;;;;0.10;0.10;;;8.10;99.90;;;;;;5092958;28;20077;-75
2021/03/15 07:54:38;;;;;;;2.50;0.25;;;8.20;99.90;;;;;;5093105;28;20051;-76
2021/03/15 07:57:20;;;;;;;0.10;0.10;;;8.30;99.90;;;;;;5092017;28;20024;-76
2021/03/15 07:59:54;;;;;;;0.20;0.20;;;8.40;99.90;;;;;;5092840;28;20040;-77
2021/03/15 08:02:33;;;;;;;0.98;0.15;;;8.60;99.90;;;;;;5091804;28;20419;-77
2021/03/15 08:05:00;;;;;;;0.85;0.45;;;8.50;99.90;;;;;;5092747;28;20457;-74
2021/03/15 08:07:26;;;;;;;0.82;0.22;;;8.50;99.90;;;;;;5093005;28;20031;-77
2021/03/15 08:09:58;;;;;;;0.20;0.20;;;8.50;99.90;;;;;;5092727;28;20035;-75
2021/03/15 08:12:29;;;;;;;0.82;0.30;;;8.60;99.90;;;;;;5092921;28;20036;-77
2021/03/15 08:15:04;;;;;;;0.35;0.20;;;8.60;99.90;;;;;;5092750;28;20035;-77
2021/03/15 08:17:37;;;;;;;0.75;0.32;;;8.60;99.90;;;;;;5092714;28;20500;-76
2021/03/15 08:20:05;;;;;;;1.75;0.20;;;8.60;99.90;;;;;;5092649;28;20027;-74
2021/03/15 08:22:38;;;;;;;3.25;0.68;;;8.70;99.90;;;;;;5095056;28;20020;-76
2021/03/15 08:25:07;;;;;;;0.30;0.20;;;8.80;99.90;;;;;;5092635;28;20472;-75
2021/03/15 08:27:39;;;;;;;0.82;0.40;;;8.80;99.90;;;;;;5092735;28;20103;-77
2021/03/15 08:30:08;;;;;;;1.15;0.35;;;8.90;99.90;;;;;;5092584;28;20373;-76
2021/03/15 08:32:36;;;;;;;2.17;0.30;;;9.00;99.90;;;;;;5074579;28;20115;-74
2021/03/15 08:35:14;;;;;;;1.15;0.85;;;9.10;99.90;;;;;;5092611;28;20043;-75
2021/03/15 08:38:02;;;;;;;0.77;0.35;;;9.10;99.90;;;;;;5092496;28;20040;-74
2021/03/15 08:40:41;;;;;;;2.05;0.30;;;9.10;99.90;;;;;;5091112;28;20089;-75
2021/03/15 08:43:20;;;;;;;0.63;0.30;;;9.20;99.90;;;;;;5092523;28;20028;-75
2021/03/15 08:45:47;;;;;;;0.17;0.17;;;9.30;99.90;;;;;;5092436;28;20024;-76
2021/03/15 08:48:13;;;;;;;5.10;0.88;;;9.20;99.90;;;;;;5091126;28;20028;-76
2021/03/15 08:50:42;;;;;;;1.63;0.82;;;9.10;99.90;;;;;;5092424;28;20036;-77
2021/03/15 08:53:09;;;;;;;4.63;0.40;;;9.00;99.90;;;;;;5091058;28;20477;-76
2021/03/15 08:55:46;;;;;;;1.00;0.40;;;9.00;99.90;;;;;;5091133;28;20385;-75
2021/03/15 08:58:34;;;;;;;2.15;0.50;;;9.10;99.90;;;;;;5092293;28;20035;-75
2021/03/15 09:01:00;;;;;;;0.30;0.30;;;9.40;99.90;;;;;;5092322;28;20042;-77
2021/03/15 09:03:48;;;;;;;2.83;0.55;;;9.60;99.90;;;;;;5092215;28;20028;-75
2021/03/15 09:06:14;;;;;;;0.85;0.20;;;10.00;99.90;;;;;;5092166;28;20032;-77
2021/03/15 09:09:15;;;;;;;7.22;1.02;;;9.70;99.90;;;;;;5095498;28;20094;-77
2021/03/15 09:11:40;;;;;;;1.42;0.40;;;9.60;99.90;;;;;;5096174;28;20032;-75
2021/03/15 09:14:16;;;;;;;0.65;0.65;;;9.60;99.90;;;;;;5096078;28;20080;-75
2021/03/15 09:16:58;;;;;;;2.72;0.57;;;9.70;99.90;;;;;;5096006;28;20036;-75
2021/03/15 09:19:39;;;;;;;3.88;0.30;;;9.70;99.90;;;;;;5096116;28;20063;-76
2021/03/15 09:22:24;;;;;;;0.40;0.22;;;9.60;99.90;;;;;;5095885;28;20024;-74
2021/03/15 09:24:51;;;;;;;0.38;0.35;;;9.60;99.90;;;;;;5095747;28;20032;-75
2021/03/15 09:27:25;;;;;;;3.05;0.43;;;9.40;99.90;;;;;;5095840;28;20469;-77
2021/03/15 09:29:54;;;;;;;5.15;0.60;;;9.60;99.90;;;;;;5095677;28;20043;-78
2021/03/15 09:32:30;;;;;;;2.22;0.60;;;9.60;99.90;;;;;;5095685;28;20035;-77
2021/03/15 09:34:58;;;;;;;2.38;0.50;;;9.70;99.90;;;;;;5095651;28;20123;-78
2021/03/15 09:37:26;;;;;;;2.22;0.52;;;9.80;99.90;;;;;;5099240;28;20020;-77
2021/03/15 09:39:55;;;;;;;3.05;0.50;;;9.80;99.90;;;;;;5097290;28;20024;-75
2021/03/15 09:42:22;;;;;;;2.53;0.40;;;9.70;99.90;;;;;;5095577;28;20039;-75
2021/03/15 09:44:48;;;;;;;1.65;0.70;;;9.60;99.90;;;;;;5095484;28;20076;-74
2021/03/15 09:47:25;;;;;;;4.35;0.45;;;9.60;99.90;;;;;;5094174;28;20020;-75
2021/03/15 09:49:53;;;;;;;1.83;0.50;;;9.50;99.90;;;;;;5093990;28;20028;-77
2021/03/15 09:52:47;;;;;;;1.33;0.40;;;9.50;99.90;;;;;;5094090;28;20089;-74
2021/03/15 09:55:15;;;;;;;1.73;0.82;;;9.40;99.90;;;;;;5094026;28;20031;-74
2021/03/15 09:57:41;;;;;;;3.15;0.75;;;9.30;99.90;;;;;;5095193;28;20023;-75
2021/03/15 10:00:15;;;;;;;;;;;9.30;99.90;;;;;;5094371;28;20051;-75
2021/03/15 10:02:48;;;;;;;2.17;0.50;;;9.10;99.90;;;;;;5093957;28;19959;-74
2021/03/15 10:05:32;;;;;;;1.67;0.68;;;8.90;99.90;;;;;;5095115;28;20043;-75
2021/03/15 10:08:17;;;;;;;1.33;0.80;;;9.00;99.90;;;;;;5095511;28;20089;-77
2021/03/15 10:11:02;;;;;;;2.50;0.82;;;9.10;99.90;;;;;;5094921;28;20427;-78
2021/03/15 10:14:03;;;;;;;0.55;0.55;;;9.30;99.90;;;;;;5091719;28;20036;-77
2021/03/15 10:17:03;;;;;;;1.55;0.85;;;9.40;99.90;;;;;;5093553;28;20024;-77
2021/03/15 10:19:53;;;;;;;1.25;0.60;;;9.40;99.90;;;;;;5085387;28;20028;-77
2021/03/15 10:22:20;;;;;;;0.47;0.43;;;9.40;99.90;;;;;;5095034;28;20027;-78
2021/03/15 10:24:52;;;;;;;3.25;0.22;;;9.50;99.90;;;;;;5093530;28;20097;-74
2021/03/15 10:27:25;;;;;;;0.65;0.38;;;9.80;99.90;;;;;;5093538;28;20270;-77
2021/03/15 10:29:57;;;;;;;0.57;0.50;;;10.00;99.90;;;;;;5093204;28;20507;-78
2021/03/15 10:32:26;;;;;;;2.88;0.82;;;9.80;99.90;;;;;;5077602;28;20370;-77
2021/03/15 10:35:04;;;;;;;1.05;0.73;;;10.00;99.90;;;;;;5094577;28;20481;-78
2021/03/15 10:37:41;;;;;;;1.95;0.40;;;10.10;99.90;;;;;;5110342;28;20092;-77
2021/03/15 10:40:31;;;;;;;3.92;0.60;;;10.30;99.90;;;;;;5094405;28;20059;-77
2021/03/15 10:42:58;;;;;;;2.90;0.50;;;10.10;99.90;;;;;;5093079;28;20078;-77
2021/03/15 10:45:28;;;;;;;2.15;0.50;;;9.90;99.90;;;;;;5093086;28;20063;-75
2021/03/15 10:48:06;;;;;;;1.10;0.50;;;9.90;99.90;;;;;;5093033;28;20028;-75
2021/03/15 10:50:48;;;;;;;1.83;0.98;;;9.90;99.90;;;;;;5092835;28;20044;-74
2021/03/15 10:53:25;;;;;;;2.78;0.70;;;9.70;99.90;;;;;;5094482;28;20028;-76
2021/03/15 10:55:57;;;;;;;0.40;0.22;;;9.60;99.90;;;;;;5092770;28;20035;-76
2021/03/15 10:58:39;;;;;;;3.55;0.40;;;9.50;99.90;;;;;;5093966;28;20040;-75
2021/03/15 11:01:23;;;;;;;1.70;0.55;;;9.40;99.90;;;;;;5092804;28;20024;-75
2021/03/15 11:03:54;;;;;;;0.52;0.40;;;9.40;99.90;;;;;;5076063;28;20039;-75
2021/03/15 11:06:29;;;;;;;;;;;9.30;99.90;;;;;;5093101;28;20024;-76
2021/03/15 11:09:08;;;;;;;4.20;0.77;;;9.30;99.90;;;;;;5077497;28;19954;-75
2021/03/15 11:11:34;;;;;;;0.88;0.40;;;9.20;99.90;;;;;;5092516;28;20055;-76
2021/03/15 11:14:13;;;;;;;3.60;1.08;;;9.20;99.90;;;;;;5092587;28;20035;-77
2021/03/15 11:17:00;;;;;;;7.28;1.25;;;9.30;99.90;;;;;;5092357;28;20565;-75
2021/03/15 11:19:29;;;;;;;5.47;0.85;;;9.80;99.90;;;;;;5092393;28;20032;-76
2021/03/15 11:21:55;;;;;;;2.10;0.75;;;10.30;99.90;;;;;;5092262;28;20028;-75
2021/03/15 11:24:31;;;;;;;1.90;0.75;;;10.30;99.90;;;;;;5092360;28;20032;-77
2021/03/15 11:27:05;;;;;;;1.63;0.70;;;10.50;99.90;;;;;;5092092;28;20038;-77
2021/03/15 11:29:42;;;;;;;2.03;0.55;;;10.70;99.90;;;;;;5091860;28;20036;-74
2021/03/15 11:32:23;;;;;;;;;;;10.60;99.90;;;;;;5092691;28;20077;-76
2021/03/15 11:34:56;;;;;;;0.82;0.57;;;10.40;99.90;;;;;;5076276;28;20365;-76
2021/03/15 11:37:29;;;;;;;1.42;0.60;;;10.00;99.90;;;;;;5092083;28;20480;-75
2021/03/15 11:40:04;;;;;;;5.20;0.85;;;9.60;99.90;;;;;;5093257;28;20030;-75
2021/03/15 11:42:38;;;;;;;1.88;0.80;;;9.50;99.90;;;;;;5093237;28;20032;-77
2021/03/15 11:45:10;;;;;;;4.82;2.00;;;9.50;99.90;;;;;;5093091;28;20051;-77
2021/03/15 11:47:36;;;;;;;4.20;0.95;;;9.60;99.90;;;;;;5091862;28;20034;-77
2021/03/15 11:50:29;;;;;;;3.08;0.95;;;9.80;99.90;;;;;;5090931;28;20032;-76
2021/03/15 11:53:07;;;;;;;5.70;1.15;;;9.80;99.90;;;;;;5091730;28;20489;-75
2021/03/15 11:55:35;;;;;;;4.38;0.73;;;10.10;99.90;;;;;;5091831;28;20059;-75
2021/03/15 11:58:04;;;;;;;3.75;1.10;;;10.20;99.90;;;;;;5075009;28;20024;-75
2021/03/15 12:00:30;;;;;;;4.47;0.68;;;10.10;99.90;;;;;;5091609;28;20443;-77
2021/03/15 12:03:12;;;;;;;3.90;0.88;;;10.20;99.90;;;;;;5091500;28;20028;-77
2021/03/15 12:06:07;;;;;;;1.33;0.65;;;10.30;99.90;;;;;;5092778;28;20067;-74
2021/03/15 12:08:47;;;;;;;1.35;0.57;;;10.20;99.90;;;;;;5094202;28;20431;-75
2021/03/15 12:11:13;;;;;;;0.98;0.40;;;10.20;99.90;;;;;;5074562;28;20040;-77
2021/03/15 12:13:39;;;;;;;1.77;0.45;;;10.10;99.90;;;;;;5092916;28;20052;-77
2021/03/15 12:16:06;;;;;;;0.32;0.30;;;10.10;99.90;;;;;;5108347;28;20101;-75
2021/03/15 12:18:32;;;;;;;3.33;0.93;;;10.10;99.90;;;;;;5091496;28;20027;-75
2021/03/15 12:21:04;;;;;;;4.80;0.80;;;10.20;99.90;;;;;;5091278;28;20492;-74
2021/03/15 12:23:32;;;;;;;4.45;0.70;;;10.30;99.90;;;;;;5091403;28;20031;-75
2021/03/15 12:25:59;;;;;;;14.15;1.42;;;10.40;99.90;;;;;;5091317;28;20093;-74
2021/03/15 12:28:30;;;;;;;2.58;0.98;;;10.50;99.90;;;;;;5091403;28;20412;-77
2021/03/15 12:31:06;;;;;;;5.28;0.98;;;10.60;99.90;;;;;;5092422;28;20097;-77
2021/03/15 12:33:35;;;;;;;1.23;0.77;;;11.00;99.90;;;;;;5091251;28;20468;-77
2021/03/15 12:36:03;;;;;;;1.83;1.27;;;11.20;99.90;;;;;;5091291;28;20059;-75
2021/03/15 12:38:29;;;;;;;5.53;0.98;;;11.30;99.90;;;;;;5091110;28;20028;-76
2021/03/15 12:40:55;;;;;;;2.25;0.88;;;11.40;99.90;;;;;;5091145;28;20446;-75
2021/03/15 12:43:24;;;;;;;4.75;0.52;;;11.40;99.90;;;;;;5094214;28;20032;-76
2021/03/15 12:45:52;;;;;;;3.38;0.70;;;11.40;99.90;;;;;;5095435;28;20062;-77
2021/03/15 12:48:18;;;;;;;2.75;0.73;;;11.30;99.90;;;;;;5096631;28;20036;-75
2021/03/15 12:50:44;;;;;;;1.85;0.65;;;11.00;99.90;;;;;;5096445;28;20047;-76
2021/03/15 12:53:11;;;;;;;5.38;0.57;;;10.80;99.90;;;;;;5095143;28;20106;-75
2021/03/15 12:56:07;;;;;;;3.22;0.60;;;11.10;99.90;;;;;;5090522;28;20368;-74
2021/03/15 12:58:37;;;;;;;2.30;0.70;;;11.30;99.90;;;;;;5094964;28;20048;-75
2021/03/15 13:01:17;;;;;;;3.47;0.75;;;11.60;99.90;;;;;;5095081;28;20069;-74
2021/03/15 13:03:48;;;;;;;1.23;0.40;;;11.40;99.90;;;;;;5095083;28;20122;-77
2021/03/15 13:06:16;;;;;;;0.80;0.73;;;11.30;99.90;;;;;;5095018;28;20060;-77
2021/03/15 13:09:03;;;;;;;4.53;0.77;;;11.00;99.90;;;;;;5095831;28;20067;-74
2021/03/15 13:11:56;;;;;;;4.47;1.05;;;10.60;99.90;;;;;;5094780;28;20040;-77
2021/03/15 13:14:43;;;;;;;3.78;1.70;;;10.50;99.90;;;;;;5096184;28;20039;-77
2021/03/15 13:17:24;;;;;;;7.40;0.50;;;10.20;99.90;;;;;;5094771;28;20481;-77
2021/03/15 13:19:50;;;;;;;7.05;1.75;;;10.10;99.90;;;;;;5094638;28;20126;-75
2021/03/15 13:22:16;;;;;;;6.55;1.48;;;10.00;99.90;;;;;;5095177;28;20027;-75